sensor_id;sensor_type;location;lat;lon;timestamp;P1;P4;P2;P0;N10;N4;N25;N1;N05;TS
78535;SPS30;67829;51.968;5.684;2024-01-25T00:01:48;14.2;12.7;9.6;5.5;;;;1.0;159.0;
78535;SPS30;67829;51.968;5.684;2024-01-25T00:04:17;11.7;10.4;7.9;4.5;;;;1.0;156.0;
78535;SPS30;67829;51.968;5.684;2024-01-25T00:06:45;14.5;12.9;9.7;5.4;;;;1.0;151.0;
78535;SPS30;67829;51.968;5.684;2024-01-25T00:09:14;12.4;11.0;8.1;4.2;;;;1.0;142.0;
78535;SPS30;67829;51.968;5.684;2024-01-25T00:11:42;13.0;11.6;8.6;4.8;;;;1.0;137.0;
78535;SPS30;67829;51.968;5.684;2024-01-25T00:14:11;14.9;13.3;9.7;5.1;;;;1.0;130.0;
78535;SPS30;67829;51.968;5.684;2024-01-25T00:16:42;15.5;13.8;10.2;5.5;;;;1.0;120.0;
78535;SPS30;67829;51.968;5.684;2024-01-25T00:19:11;13.3;11.9;8.8;4.8;;;;2.0;121.0;
78535;SPS30;67829;51.968;5.684;2024-01-25T00:21:42;13.7;12.4;9.5;5.7;;;;2.0;122.0;
78535;SPS30;67829;51.968;5.684;2024-01-25T00:24:12;13.2;11.9;9.1;5.4;;;;2.0;122.0;
78535;SPS30;67829;51.968;5.684;2024-01-25T00:26:41;12.5;11.2;8.4;4.7;;;;2.0;116.0;
78535;SPS30;67829;51.968;5.684;2024-01-25T00:29:10;14.0;12.5;9.2;5.0;;;;2.0;111.0;
78535;SPS30;67829;51.968;5.684;2024-01-25T00:31:38;13.6;12.2;9.2;5.3;;;;2.0;107.0;
78535;SPS30;67829;51.968;5.684;2024-01-25T00:34:07;12.9;11.5;8.6;4.8;;;;2.0;104.0;
78535;SPS30;67829;51.968;5.684;2024-01-25T00:36:37;14.6;13.0;9.5;5.0;;;;2.0;100.0;
78535;SPS30;67829;51.968;5.684;2024-01-25T00:39:07;12.3;11.0;8.2;4.5;;;;2.0;91.0;
78535;SPS30;67829;51.968;5.684;2024-01-25T00:41:38;12.3;11.0;8.3;4.7;;;;2.0;90.0;
78535;SPS30;67829;51.968;5.684;2024-01-25T00:44:11;11.4;10.3;7.8;4.5;;;;2.0;86.0;
78535;SPS30;67829;51.968;5.684;2024-01-25T00:46:42;12.9;11.6;8.9;5.3;;;;2.0;83.0;
78535;SPS30;67829;51.968;5.684;2024-01-25T00:49:13;11.1;9.9;7.5;4.4;;;;2.0;71.0;
78535;SPS30;67829;51.968;5.684;2024-01-25T00:51:43;12.4;11.2;8.6;5.1;;;;2.0;66.0;
78535;SPS30;67829;51.968;5.684;2024-01-25T00:54:16;11.3;10.1;7.7;4.4;;;;2.0;65.0;
78535;SPS30;67829;51.968;5.684;2024-01-25T00:56:45;12.4;11.2;8.4;4.8;;;;2.0;60.0;
78535;SPS30;67829;51.968;5.684;2024-01-25T00:59:17;13.2;11.9;9.0;5.2;;;;2.0;58.0;
78535;SPS30;67829;51.968;5.684;2024-01-25T01:01:47;12.2;10.9;8.1;4.5;;;;2.0;54.0;
78535;SPS30;67829;51.968;5.684;2024-01-25T01:04:17;11.9;10.7;8.0;4.6;;;;2.0;51.0;
78535;SPS30;67829;51.968;5.684;2024-01-25T01:06:46;14.8;13.2;9.9;5.6;;;;2.0;54.0;
78535;SPS30;67829;51.968;5.684;2024-01-25T01:09:16;13.3;11.9;8.9;4.9;;;;3.0;53.0;
78535;SPS30;67829;51.968;5.684;2024-01-25T01:11:45;13.2;11.7;8.5;4.5;;;;3.0;49.0;
78535;SPS30;67829;51.968;5.684;2024-01-25T01:14:16;15.0;13.3;9.6;4.9;;;;3.0;47.0;
78535;SPS30;67829;51.968;5.684;2024-01-25T01:16:45;14.4;12.9;9.8;5.7;;;;3.0;50.0;
78535;SPS30;67829;51.968;5.684;2024-01-25T01:19:14;12.8;11.5;8.9;5.5;;;;3.0;54.0;
78535;SPS30;67829;51.968;5.684;2024-01-25T01:21:42;12.0;10.8;8.1;4.6;;;;3.0;56.0;
78535;SPS30;67829;51.968;5.684;2024-01-25T01:24:11;12.5;11.2;8.2;4.5;;;;3.0;58.0;
78535;SPS30;67829;51.968;5.684;2024-01-25T01:26:40;13.6;12.1;9.0;4.9;;;;3.0;62.0;
78535;SPS30;67829;51.968;5.684;2024-01-25T01:29:09;11.7;10.4;7.6;4.0;;;;3.0;67.0;
78535;SPS30;67829;51.968;5.684;2024-01-25T01:31:38;13.3;11.9;8.8;4.8;;;;3.0;68.0;
78535;SPS30;67829;51.968;5.684;2024-01-25T01:34:07;12.8;11.4;8.4;4.6;;;;3.0;68.0;
78535;SPS30;67829;51.968;5.684;2024-01-25T01:36:38;12.5;11.2;8.4;4.7;;;;3.0;73.0;
78535;SPS30;67829;51.968;5.684;2024-01-25T01:39:07;11.6;10.4;8.0;4.7;;;;3.0;80.0;
78535;SPS30;67829;51.968;5.684;2024-01-25T01:41:36;12.9;11.6;8.8;5.2;;;;3.0;81.0;
78535;SPS30;67829;51.968;5.684;2024-01-25T01:44:05;16.4;14.6;10.8;5.9;;;;3.0;79.0;
78535;SPS30;67829;51.968;5.684;2024-01-25T01:46:35;11.0;9.8;7.4;4.2;;;;3.0;80.0;
78535;SPS30;67829;51.968;5.684;2024-01-25T01:49:06;13.2;11.8;9.0;5.3;;;;3.0;84.0;
78535;SPS30;67829;51.968;5.684;2024-01-25T01:51:36;12.5;11.3;8.6;5.1;;;;3.0;84.0;
78535;SPS30;67829;51.968;5.684;2024-01-25T01:54:09;14.0;12.5;9.6;5.6;;;;3.0;84.0;
78535;SPS30;67829;51.968;5.684;2024-01-25T01:56:39;13.6;12.3;9.5;5.8;;;;3.0;90.0;
78535;SPS30;67829;51.968;5.684;2024-01-25T01:59:10;14.1;12.6;9.4;5.3;;;;3.0;90.0;
78535;SPS30;67829;51.968;5.684;2024-01-25T02:01:43;12.4;11.1;8.4;4.9;;;;3.0;91.0;
78535;SPS30;67829;51.968;5.684;2024-01-25T02:04:11;12.2;10.9;8.2;4.6;;;;3.0;90.0;
78535;SPS30;67829;51.968;5.684;2024-01-25T02:06:40;14.5;13.0;9.7;5.4;;;;3.0;85.0;
78535;SPS30;67829;51.968;5.684;2024-01-25T02:09:12;12.4;11.1;8.6;5.2;;;;3.0;82.0;
78535;SPS30;67829;51.968;5.684;2024-01-25T02:11:41;12.2;11.0;8.4;4.9;;;;3.0;85.0;
78535;SPS30;67829;51.968;5.684;2024-01-25T02:14:10;11.3;10.1;7.6;4.3;;;;3.0;93.0;
78535;SPS30;67829;51.968;5.684;2024-01-25T02:16:39;14.5;12.9;9.7;5.4;;;;3.0;92.0;
78535;SPS30;67829;51.968;5.684;2024-01-25T02:19:13;12.9;11.5;8.7;4.9;;;;3.0;97.0;
78535;SPS30;67829;51.968;5.684;2024-01-25T02:21:41;15.5;13.8;10.3;5.8;;;;3.0;98.0;
78535;SPS30;67829;51.968;5.684;2024-01-25T02:24:09;12.8;11.5;8.7;4.9;;;;3.0;101.0;
78535;SPS30;67829;51.968;5.684;2024-01-25T02:26:38;11.8;10.5;7.9;4.5;;;;3.0;126.0;
78535;SPS30;67829;51.968;5.684;2024-01-25T02:29:06;14.0;12.5;9.2;5.1;;;;3.0;133.0;
78535;SPS30;67829;51.968;5.684;2024-01-25T02:31:36;12.9;11.5;8.4;4.5;;;;3.0;143.0;
78535;SPS30;67829;51.968;5.684;2024-01-25T02:34:04;11.9;10.6;7.9;4.4;;;;3.0;141.0;
78535;SPS30;67829;51.968;5.684;2024-01-25T02:36:33;12.5;11.2;8.3;4.6;;;;3.0;135.0;
78535;SPS30;67829;51.968;5.684;2024-01-25T02:39:01;14.8;13.1;9.7;5.3;;;;3.0;127.0;
78535;SPS30;67829;51.968;5.684;2024-01-25T02:41:31;11.5;10.3;7.8;4.4;;;;3.0;134.0;
78535;SPS30;67829;51.968;5.684;2024-01-25T02:44:01;11.2;10.1;7.9;4.9;;;;3.0;136.0;
78535;SPS30;67829;51.968;5.684;2024-01-25T02:46:30;12.0;10.8;8.2;4.8;;;;3.0;120.0;
78535;SPS30;67829;51.968;5.684;2024-01-25T02:48:58;11.4;10.2;7.6;4.2;;;;3.0;116.0;
78535;SPS30;67829;51.968;5.684;2024-01-25T02:51:27;13.9;12.3;9.1;5.0;;;;3.0;114.0;
78535;SPS30;67829;51.968;5.684;2024-01-25T02:53:56;13.9;12.4;9.3;5.3;;;;3.0;115.0;
78535;SPS30;67829;51.968;5.684;2024-01-25T02:56:24;12.5;11.2;8.4;4.9;;;;3.0;119.0;
78535;SPS30;67829;51.968;5.684;2024-01-25T02:58:58;14.3;12.8;9.6;5.4;;;;3.0;110.0;
78535;SPS30;67829;51.968;5.684;2024-01-25T03:01:26;13.3;11.9;8.9;5.1;;;;4.0;109.0;
78535;SPS30;67829;51.968;5.684;2024-01-25T03:03:55;12.8;11.4;8.6;4.9;;;;4.0;104.0;
78535;SPS30;67829;51.968;5.684;2024-01-25T03:06:23;10.9;9.8;7.6;4.6;;;;4.0;103.0;
78535;SPS30;67829;51.968;5.684;2024-01-25T03:08:54;12.0;10.8;8.2;4.8;;;;4.0;98.0;
78535;SPS30;67829;51.968;5.684;2024-01-25T03:11:22;15.5;13.9;10.4;5.9;;;;4.0;91.0;
78535;SPS30;67829;51.968;5.684;2024-01-25T03:13:51;13.4;12.0;8.9;4.9;;;;4.0;88.0;
78535;SPS30;67829;51.968;5.684;2024-01-25T03:16:19;14.2;12.7;9.4;5.2;;;;4.0;90.0;
78535;SPS30;67829;51.968;5.684;2024-01-25T03:18:48;11.3;10.2;7.7;4.4;;;;4.0;90.0;
78535;SPS30;67829;51.968;5.684;2024-01-25T03:21:17;12.2;10.9;8.1;4.5;;;;4.0;91.0;
78535;SPS30;67829;51.968;5.684;2024-01-25T03:23:45;14.8;13.2;9.8;5.4;;;;4.0;85.0;
78535;SPS30;67829;51.968;5.684;2024-01-25T03:26:15;13.9;12.4;9.2;5.0;;;;4.0;83.0;
78535;SPS30;67829;51.968;5.684;2024-01-25T03:28:44;13.8;12.2;9.1;4.9;;;;4.0;85.0;
78535;SPS30;67829;51.968;5.684;2024-01-25T03:31:12;14.4;12.8;9.5;5.1;;;;4.0;84.0;
78535;SPS30;67829;51.968;5.684;2024-01-25T03:33:43;15.5;13.7;10.1;5.4;;;;5.0;89.0;
78535;SPS30;67829;51.968;5.684;2024-01-25T03:36:15;16.0;14.2;10.5;5.7;;;;5.0;90.0;
78535;SPS30;67829;51.968;5.684;2024-01-25T03:38:43;14.0;12.5;9.4;5.4;;;;5.0;84.0;
78535;SPS30;67829;51.968;5.684;2024-01-25T03:41:12;14.3;12.8;9.5;5.2;;;;5.0;76.0;
78535;SPS30;67829;51.968;5.684;2024-01-25T03:43:41;17.7;15.7;11.5;6.0;;;;5.0;76.0;
78535;SPS30;67829;51.968;5.684;2024-01-25T03:46:11;14.8;13.1;9.6;5.0;;;;5.0;74.0;
78535;SPS30;67829;51.968;5.684;2024-01-25T03:48:40;13.5;12.0;8.9;4.9;;;;5.0;73.0;
78535;SPS30;67829;51.968;5.684;2024-01-25T03:51:09;14.8;13.2;9.7;5.3;;;;5.0;74.0;
78535;SPS30;67829;51.968;5.684;2024-01-25T03:53:37;15.0;13.3;9.8;5.3;;;;5.0;75.0;
78535;SPS30;67829;51.968;5.684;2024-01-25T03:56:12;12.8;11.5;8.7;5.1;;;;5.0;75.0;
78535;SPS30;67829;51.968;5.684;2024-01-25T03:58:43;13.7;12.2;9.1;5.1;;;;5.0;76.0;
78535;SPS30;67829;51.968;5.684;2024-01-25T04:01:12;11.8;10.7;8.2;5.0;;;;5.0;76.0;
78535;SPS30;67829;51.968;5.684;2024-01-25T04:03:40;14.5;12.9;9.6;5.3;;;;5.0;78.0;
78535;SPS30;67829;51.968;5.684;2024-01-25T04:06:09;16.9;15.1;11.2;6.3;;;;5.0;78.0;
78535;SPS30;67829;51.968;5.684;2024-01-25T04:08:38;14.5;13.0;9.6;5.4;;;;5.0;83.0;
78535;SPS30;67829;51.968;5.684;2024-01-25T04:11:06;13.6;12.1;9.1;5.1;;;;5.0;92.0;
78535;SPS30;67829;51.968;5.684;2024-01-25T04:13:36;12.8;11.5;8.6;4.9;;;;5.0;101.0;
78535;SPS30;67829;51.968;5.684;2024-01-25T04:16:05;11.5;10.3;7.7;4.4;;;;5.0;110.0;
78535;SPS30;67829;51.968;5.684;2024-01-25T04:18:34;11.3;10.2;7.8;4.6;;;;5.0;124.0;
78535;SPS30;67829;51.968;5.684;2024-01-25T04:21:03;11.3;10.2;7.9;4.8;;;;5.0;157.0;
78535;SPS30;67829;51.968;5.684;2024-01-25T04:23:32;9.6;8.8;7.0;4.6;;;;5.0;206.0;
78535;SPS30;67829;51.968;5.684;2024-01-25T04:26:00;10.9;9.9;7.9;5.1;;;;4.0;212.0;
78535;SPS30;67829;51.968;5.684;2024-01-25T04:28:28;12.3;11.1;8.5;5.0;;;;4.0;224.0;
78535;SPS30;67829;51.968;5.684;2024-01-25T04:30:57;12.5;11.3;8.6;5.1;;;;4.0;220.0;
78535;SPS30;67829;51.968;5.684;2024-01-25T04:33:25;12.1;11.0;8.7;5.5;;;;4.0;215.0;
78535;SPS30;67829;51.968;5.684;2024-01-25T04:35:54;13.2;11.9;9.3;5.7;;;;4.0;218.0;
78535;SPS30;67829;51.968;5.684;2024-01-25T04:38:22;13.9;12.5;9.7;5.9;;;;4.0;221.0;
78535;SPS30;67829;51.968;5.684;2024-01-25T04:40:51;10.5;9.5;7.2;4.3;;;;4.0;228.0;
78535;SPS30;67829;51.968;5.684;2024-01-25T04:43:19;13.9;12.6;9.9;6.2;;;;4.0;229.0;
78535;SPS30;67829;51.968;5.684;2024-01-25T04:45:47;12.7;11.5;9.0;5.6;;;;4.0;229.0;
78535;SPS30;67829;51.968;5.684;2024-01-25T04:48:16;12.6;11.4;9.0;5.7;;;;4.0;241.0;
78535;SPS30;67829;51.968;5.684;2024-01-25T04:50:44;10.6;9.7;7.7;5.1;;;;4.0;240.0;
78535;SPS30;67829;51.968;5.684;2024-01-25T04:53:13;12.2;11.0;8.5;5.1;;;;4.0;243.0;
78535;SPS30;67829;51.968;5.684;2024-01-25T04:55:41;11.8;10.7;8.3;5.2;;;;4.0;245.0;
78535;SPS30;67829;51.968;5.684;2024-01-25T04:58:10;12.6;11.4;8.7;5.1;;;;4.0;243.0;
78535;SPS30;67829;51.968;5.684;2024-01-25T05:00:38;14.8;13.3;10.2;6.0;;;;4.0;244.0;
78535;SPS30;67829;51.968;5.684;2024-01-25T05:03:09;13.8;12.4;9.5;5.7;;;;4.0;253.0;
78535;SPS30;67829;51.968;5.684;2024-01-25T05:05:37;12.3;11.1;8.7;5.4;;;;4.0;261.0;
78535;SPS30;67829;51.968;5.684;2024-01-25T05:08:07;12.3;11.2;8.6;5.3;;;;4.0;264.0;
78535;SPS30;67829;51.968;5.684;2024-01-25T05:10:35;12.0;10.9;8.4;5.1;;;;4.0;266.0;
78535;SPS30;67829;51.968;5.684;2024-01-25T05:13:04;11.4;10.4;8.4;5.7;;;;4.0;259.0;
78535;SPS30;67829;51.968;5.684;2024-01-25T05:15:32;10.8;9.9;8.0;5.4;;;;4.0;256.0;
78535;SPS30;67829;51.968;5.684;2024-01-25T05:18:01;10.8;9.8;7.7;4.8;;;;4.0;253.0;
78535;SPS30;67829;51.968;5.684;2024-01-25T05:20:30;13.5;12.3;9.6;6.0;;;;4.0;243.0;
78535;SPS30;67829;51.968;5.684;2024-01-25T05:23:02;12.8;11.5;8.7;5.1;;;;4.0;242.0;
78535;SPS30;67829;51.968;5.684;2024-01-25T05:25:31;12.1;10.9;8.5;5.3;;;;4.0;247.0;
78535;SPS30;67829;51.968;5.684;2024-01-25T05:28:00;14.0;12.6;9.5;5.5;;;;4.0;263.0;
78535;SPS30;67829;51.968;5.684;2024-01-25T05:30:29;13.0;11.8;9.1;5.6;;;;4.0;265.0;
78535;SPS30;67829;51.968;5.684;2024-01-25T05:32:58;13.8;12.5;9.7;6.0;;;;4.0;269.0;
78535;SPS30;67829;51.968;5.684;2024-01-25T05:35:27;13.4;12.1;9.3;5.7;;;;4.0;284.0;
78535;SPS30;67829;51.968;5.684;2024-01-25T05:37:55;14.2;12.8;9.9;6.0;;;;4.0;296.0;
78535;SPS30;67829;51.968;5.684;2024-01-25T05:40:24;14.5;13.2;10.4;6.6;;;;4.0;298.0;
78535;SPS30;67829;51.968;5.684;2024-01-25T05:42:52;15.0;13.5;10.5;6.5;;;;4.0;295.0;
78535;SPS30;67829;51.968;5.684;2024-01-25T05:45:21;13.0;11.8;9.2;5.8;;;;4.0;291.0;
78535;SPS30;67829;51.968;5.684;2024-01-25T05:47:50;12.3;11.1;8.6;5.3;;;;4.0;290.0;
78535;SPS30;67829;51.968;5.684;2024-01-25T05:50:19;13.5;12.2;9.6;6.1;;;;4.0;289.0;
78535;SPS30;67829;51.968;5.684;2024-01-25T05:52:47;13.8;12.6;10.0;6.5;;;;4.0;293.0;
78535;SPS30;67829;51.968;5.684;2024-01-25T05:55:16;12.3;11.2;8.9;5.7;;;;4.0;294.0;
78535;SPS30;67829;51.968;5.684;2024-01-25T05:57:44;12.9;11.7;9.2;5.9;;;;4.0;297.0;
78535;SPS30;67829;51.968;5.684;2024-01-25T06:00:14;12.6;11.6;9.5;6.6;;;;4.0;301.0;
78535;SPS30;67829;51.968;5.684;2024-01-25T06:02:46;13.3;12.1;9.7;6.4;;;;4.0;305.0;
78535;SPS30;67829;51.968;5.684;2024-01-25T06:05:14;10.1;9.3;7.5;5.0;;;;4.0;305.0;
78535;SPS30;67829;51.968;5.684;2024-01-25T06:07:43;11.3;10.4;8.4;5.8;;;;3.0;306.0;
78535;SPS30;67829;51.968;5.684;2024-01-25T06:10:11;13.0;11.9;9.5;6.3;;;;3.0;303.0;
78535;SPS30;67829;51.968;5.684;2024-01-25T06:12:40;12.3;11.2;9.0;6.0;;;;3.0;301.0;
78535;SPS30;67829;51.968;5.684;2024-01-25T06:15:09;13.7;12.4;9.8;6.4;;;;3.0;299.0;
78535;SPS30;67829;51.968;5.684;2024-01-25T06:17:38;13.6;12.4;9.8;6.3;;;;3.0;299.0;
78535;SPS30;67829;51.968;5.684;2024-01-25T06:20:07;14.2;12.9;10.1;6.4;;;;3.0;299.0;
78535;SPS30;67829;51.968;5.684;2024-01-25T06:22:39;13.1;12.0;9.5;6.2;;;;3.0;299.0;
78535;SPS30;67829;51.968;5.684;2024-01-25T06:25:10;12.4;11.4;9.3;6.4;;;;3.0;299.0;
78535;SPS30;67829;51.968;5.684;2024-01-25T06:27:40;11.3;10.4;8.6;6.0;;;;3.0;299.0;
78535;SPS30;67829;51.968;5.684;2024-01-25T06:30:10;12.8;11.7;9.3;6.1;;;;3.0;301.0;
78535;SPS30;67829;51.968;5.684;2024-01-25T06:32:39;13.7;12.4;9.8;6.2;;;;3.0;301.0;
78535;SPS30;67829;51.968;5.684;2024-01-25T06:35:09;14.4;13.2;10.5;6.9;;;;3.0;300.0;
78535;SPS30;67829;51.968;5.684;2024-01-25T06:37:39;12.8;11.7;9.5;6.5;;;;3.0;300.0;
78535;SPS30;67829;51.968;5.684;2024-01-25T06:40:09;13.9;12.8;10.3;6.9;;;;3.0;299.0;
78535;SPS30;67829;51.968;5.684;2024-01-25T06:42:40;13.0;12.0;9.8;6.8;;;;3.0;299.0;
78535;SPS30;67829;51.968;5.684;2024-01-25T06:45:11;11.9;10.9;8.8;5.9;;;;3.0;304.0;
78535;SPS30;67829;51.968;5.684;2024-01-25T06:47:42;12.5;11.4;9.1;6.0;;;;3.0;305.0;
78535;SPS30;67829;51.968;5.684;2024-01-25T06:50:10;10.3;9.6;8.1;6.0;;;;3.0;304.0;
78535;SPS30;67829;51.968;5.684;2024-01-25T06:52:39;10.0;9.3;8.0;6.1;;;;3.0;303.0;
78535;SPS30;67829;51.968;5.684;2024-01-25T06:55:09;11.7;10.8;8.9;6.3;;;;3.0;302.0;
78535;SPS30;67829;51.968;5.684;2024-01-25T06:57:38;10.6;9.9;8.4;6.3;;;;2.0;302.0;
78535;SPS30;67829;51.968;5.684;2024-01-25T07:00:07;10.8;10.1;8.7;6.6;;;;2.0;302.0;
78535;SPS30;67829;51.968;5.684;2024-01-25T07:02:42;11.3;10.5;8.9;6.5;;;;2.0;304.0;
78535;SPS30;67829;51.968;5.684;2024-01-25T07:05:10;11.0;10.2;8.6;6.3;;;;2.0;305.0;
78535;SPS30;67829;51.968;5.684;2024-01-25T07:07:39;11.9;11.0;9.2;6.5;;;;2.0;306.0;
78535;SPS30;67829;51.968;5.684;2024-01-25T07:10:08;10.6;9.9;8.3;6.1;;;;2.0;305.0;
78535;SPS30;67829;51.968;5.684;2024-01-25T07:12:37;12.0;11.1;9.3;6.7;;;;1.0;307.0;
78535;SPS30;67829;51.968;5.684;2024-01-25T07:15:06;10.6;9.8;8.3;6.1;;;;1.0;318.0;
78535;SPS30;67829;51.968;5.684;2024-01-25T07:17:35;10.8;10.1;8.6;6.5;;;;1.0;346.0;
78535;SPS30;67829;51.968;5.684;2024-01-25T07:20:06;11.5;10.7;9.0;6.7;;;;1.0;337.0;
78535;SPS30;67829;51.968;5.684;2024-01-25T07:22:35;11.7;10.9;9.2;6.8;;;;1.0;334.0;
78535;SPS30;67829;51.968;5.684;2024-01-25T07:25:05;11.7;10.9;9.1;6.7;;;;1.0;332.0;
78535;SPS30;67829;51.968;5.684;2024-01-25T07:27:33;9.6;9.0;7.7;5.8;;;;1.0;325.0;
78535;SPS30;67829;51.968;5.684;2024-01-25T07:30:02;10.5;9.8;8.4;6.3;;;;1.0;313.0;
78535;SPS30;67829;51.968;5.684;2024-01-25T07:32:31;12.9;12.0;10.2;7.5;;;;1.0;309.0;
78535;SPS30;67829;51.968;5.684;2024-01-25T07:35:02;10.6;9.8;8.3;6.2;;;;1.0;304.0;
78535;SPS30;67829;51.968;5.684;2024-01-25T07:37:35;13.1;12.2;10.1;7.2;;;;1.0;301.0;
78535;SPS30;67829;51.968;5.684;2024-01-25T07:40:07;12.5;11.6;9.7;7.0;;;;1.0;294.0;
78535;SPS30;67829;51.968;5.684;2024-01-25T07:42:37;13.2;12.3;10.4;7.7;;;;1.0;289.0;
78535;SPS30;67829;51.968;5.684;2024-01-25T07:45:06;11.2;10.6;9.2;7.2;;;;1.0;288.0;
78535;SPS30;67829;51.968;5.684;2024-01-25T07:47:36;11.1;10.4;9.0;6.8;;;;1.0;288.0;
78535;SPS30;67829;51.968;5.684;2024-01-25T07:50:05;13.9;12.9;10.7;7.7;;;;1.0;288.0;
78535;SPS30;67829;51.968;5.684;2024-01-25T07:52:34;11.3;10.5;9.0;6.8;;;;2.0;290.0;
78535;SPS30;67829;51.968;5.684;2024-01-25T07:55:03;9.9;9.2;7.9;5.9;;;;2.0;292.0;
78535;SPS30;67829;51.968;5.684;2024-01-25T07:57:32;11.0;10.3;8.8;6.6;;;;2.0;294.0;
78535;SPS30;67829;51.968;5.684;2024-01-25T08:00:00;10.7;10.0;8.4;6.3;;;;1.0;301.0;
78535;SPS30;67829;51.968;5.684;2024-01-25T08:02:30;10.4;9.8;8.4;6.4;;;;1.0;295.0;
78535;SPS30;67829;51.968;5.684;2024-01-25T08:04:59;10.4;9.7;8.3;6.3;;;;1.0;288.0;
78535;SPS30;67829;51.968;5.684;2024-01-25T08:07:30;14.0;13.0;10.6;7.4;;;;1.0;286.0;
78535;SPS30;67829;51.968;5.684;2024-01-25T08:10:01;11.3;10.5;9.0;6.8;;;;1.0;286.0;
78535;SPS30;67829;51.968;5.684;2024-01-25T08:12:30;11.8;11.1;9.7;7.6;;;;1.0;285.0;
78535;SPS30;67829;51.968;5.684;2024-01-25T08:14:59;12.9;12.1;10.3;7.7;;;;1.0;286.0;
78535;SPS30;67829;51.968;5.684;2024-01-25T08:17:28;10.5;9.9;8.6;6.6;;;;1.0;398.0;
78535;SPS30;67829;51.968;5.684;2024-01-25T08:19:56;11.2;10.6;9.4;7.6;;;;1.0;324.0;
78535;SPS30;67829;51.968;5.684;2024-01-25T08:22:25;10.8;10.2;8.9;7.0;;;;1.0;301.0;
78535;SPS30;67829;51.968;5.684;2024-01-25T08:24:54;11.2;10.5;9.0;6.9;;;;1.0;294.0;
78535;SPS30;67829;51.968;5.684;2024-01-25T08:27:24;10.7;10.1;8.9;7.0;;;;1.0;290.0;
78535;SPS30;67829;51.968;5.684;2024-01-25T08:29:53;10.7;10.0;8.6;6.6;;;;1.0;288.0;
78535;SPS30;67829;51.968;5.684;2024-01-25T08:32:21;11.0;10.3;8.7;6.5;;;;1.0;289.0;
78535;SPS30;67829;51.968;5.684;2024-01-25T08:34:50;13.6;12.6;10.5;7.6;;;;1.0;289.0;
78535;SPS30;67829;51.968;5.684;2024-01-25T08:37:18;12.0;11.2;9.5;7.1;;;;1.0;290.0;
78535;SPS30;67829;51.968;5.684;2024-01-25T08:39:47;12.0;11.3;9.8;7.6;;;;1.0;290.0;
78535;SPS30;67829;51.968;5.684;2024-01-25T08:42:17;11.3;10.6;9.2;7.1;;;;1.0;290.0;
78535;SPS30;67829;51.968;5.684;2024-01-25T08:44:47;12.9;12.1;10.4;7.9;;;;1.0;289.0;
78535;SPS30;67829;51.968;5.684;2024-01-25T08:47:17;11.6;10.9;9.6;7.6;;;;1.0;289.0;
78535;SPS30;67829;51.968;5.684;2024-01-25T08:49:46;11.4;10.8;9.6;7.7;;;;1.0;288.0;
78535;SPS30;67829;51.968;5.684;2024-01-25T08:52:15;12.7;12.0;10.5;8.2;;;;1.0;288.0;
78535;SPS30;67829;51.968;5.684;2024-01-25T08:54:43;13.5;12.7;11.0;8.6;;;;1.0;287.0;
78535;SPS30;67829;51.968;5.684;2024-01-25T08:57:14;11.9;11.2;9.8;7.8;;;;1.0;286.0;
78535;SPS30;67829;51.968;5.684;2024-01-25T08:59:43;11.1;10.6;9.5;7.7;;;;1.0;284.0;
78535;SPS30;67829;51.968;5.684;2024-01-25T09:02:14;13.0;12.4;11.0;8.8;;;;1.0;281.0;
78535;SPS30;67829;51.968;5.684;2024-01-25T09:04:43;11.9;11.4;10.3;8.5;;;;1.0;280.0;
78535;SPS30;67829;51.968;5.684;2024-01-25T09:07:11;11.1;10.7;10.0;8.7;;;;1.0;279.0;
78535;SPS30;67829;51.968;5.684;2024-01-25T09:09:40;11.0;10.5;9.6;8.1;;;;1.0;278.0;
78535;SPS30;67829;51.968;5.684;2024-01-25T09:12:08;10.7;10.2;9.2;7.6;;;;1.0;277.0;
78535;SPS30;67829;51.968;5.684;2024-01-25T09:14:37;11.6;11.1;10.1;8.4;;;;1.0;276.0;
78535;SPS30;67829;51.968;5.684;2024-01-25T09:17:07;10.7;10.2;9.2;7.7;;;;1.0;276.0;
78535;SPS30;67829;51.968;5.684;2024-01-25T09:19:36;11.8;11.4;10.6;9.1;;;;1.0;275.0;
78535;SPS30;67829;51.968;5.684;2024-01-25T09:22:06;11.3;10.8;9.6;7.9;;;;1.0;275.0;
78535;SPS30;67829;51.968;5.684;2024-01-25T09:24:36;10.9;10.5;9.6;8.1;;;;1.0;274.0;
78535;SPS30;67829;51.968;5.684;2024-01-25T09:27:06;10.9;10.4;9.5;8.0;;;;1.0;274.0;
78535;SPS30;67829;51.968;5.684;2024-01-25T09:29:35;12.5;11.9;10.5;8.4;;;;1.0;274.0;
78535;SPS30;67829;51.968;5.684;2024-01-25T09:32:05;10.6;10.1;9.1;7.5;;;;1.0;273.0;
78535;SPS30;67829;51.968;5.684;2024-01-25T09:34:34;12.2;11.6;10.4;8.4;;;;1.0;273.0;
78535;SPS30;67829;51.968;5.684;2024-01-25T09:37:04;10.8;10.3;9.4;7.8;;;;1.0;272.0;
78535;SPS30;67829;51.968;5.684;2024-01-25T09:39:33;11.7;11.2;10.2;8.6;;;;1.0;271.0;
78535;SPS30;67829;51.968;5.684;2024-01-25T09:42:04;10.3;9.8;9.0;7.6;;;;1.0;271.0;
78535;SPS30;67829;51.968;5.684;2024-01-25T09:44:33;10.1;9.7;8.8;7.3;;;;1.0;270.0;
78535;SPS30;67829;51.968;5.684;2024-01-25T09:47:03;12.7;12.0;10.5;8.3;;;;1.0;269.0;
78535;SPS30;67829;51.968;5.684;2024-01-25T09:49:34;11.1;10.6;9.5;7.7;;;;1.0;269.0;
78535;SPS30;67829;51.968;5.684;2024-01-25T09:52:03;10.6;10.2;9.1;7.5;;;;1.0;269.0;
78535;SPS30;67829;51.968;5.684;2024-01-25T09:54:34;13.4;12.7;11.2;9.1;;;;1.0;269.0;
78535;SPS30;67829;51.968;5.684;2024-01-25T09:57:05;12.3;11.7;10.4;8.4;;;;1.0;268.0;
78535;SPS30;67829;51.968;5.684;2024-01-25T09:59:40;12.1;11.6;10.4;8.5;;;;1.0;267.0;
78535;SPS30;67829;51.968;5.684;2024-01-25T10:02:08;13.0;12.5;11.5;9.7;;;;1.0;266.0;
78535;SPS30;67829;51.968;5.684;2024-01-25T10:04:38;12.7;12.2;11.2;9.5;;;;1.0;265.0;
78535;SPS30;67829;51.968;5.684;2024-01-25T10:07:07;14.0;13.3;11.9;9.7;;;;1.0;261.0;
78535;SPS30;67829;51.968;5.684;2024-01-25T10:09:41;12.0;11.5;10.4;8.7;;;;1.0;255.0;
78535;SPS30;67829;51.968;5.684;2024-01-25T10:12:10;12.9;12.4;11.2;9.3;;;;1.0;255.0;
78535;SPS30;67829;51.968;5.684;2024-01-25T10:14:38;13.5;12.9;11.6;9.5;;;;1.0;254.0;
78535;SPS30;67829;51.968;5.684;2024-01-25T10:17:07;13.2;12.5;11.0;8.8;;;;1.0;253.0;
78535;SPS30;67829;51.968;5.684;2024-01-25T10:19:36;13.2;12.6;11.2;9.1;;;;1.0;253.0;
78535;SPS30;67829;51.968;5.684;2024-01-25T10:22:06;11.8;11.2;10.0;8.2;;;;1.0;254.0;
78535;SPS30;67829;51.968;5.684;2024-01-25T10:24:38;13.0;12.4;10.9;8.7;;;;1.0;253.0;
78535;SPS30;67829;51.968;5.684;2024-01-25T10:27:08;12.2;11.6;10.4;8.4;;;;1.0;253.0;
78535;SPS30;67829;51.968;5.684;2024-01-25T10:29:36;13.7;13.1;11.6;9.4;;;;1.0;252.0;
78535;SPS30;67829;51.968;5.684;2024-01-25T10:32:06;14.0;13.2;11.6;9.2;;;;1.0;251.0;
78535;SPS30;67829;51.968;5.684;2024-01-25T10:34:37;11.6;11.0;9.9;8.2;;;;1.0;250.0;
78535;SPS30;67829;51.968;5.684;2024-01-25T10:37:07;11.4;10.8;9.7;7.8;;;;1.0;250.0;
78535;SPS30;67829;51.968;5.684;2024-01-25T10:39:36;11.8;11.2;9.8;7.7;;;;1.0;249.0;
78535;SPS30;67829;51.968;5.684;2024-01-25T10:42:08;11.7;11.1;9.9;8.0;;;;1.0;247.0;
78535;SPS30;67829;51.968;5.684;2024-01-25T10:44:39;12.5;11.9;10.8;8.9;;;;1.0;248.0;
78535;SPS30;67829;51.968;5.684;2024-01-25T10:47:08;12.7;12.1;10.7;8.6;;;;1.0;249.0;
78535;SPS30;67829;51.968;5.684;2024-01-25T10:49:38;12.6;12.2;11.4;9.8;;;;1.0;248.0;
78535;SPS30;67829;51.968;5.684;2024-01-25T10:52:09;11.4;11.0;10.1;8.7;;;;1.0;248.0;
78535;SPS30;67829;51.968;5.684;2024-01-25T10:54:38;12.8;12.4;11.7;10.2;;;;1.0;248.0;
78535;SPS30;67829;51.968;5.684;2024-01-25T10:57:08;12.9;12.5;11.4;9.7;;;;1.0;248.0;
78535;SPS30;67829;51.968;5.684;2024-01-25T10:59:37;11.6;11.2;10.3;8.9;;;;1.0;248.0;
78535;SPS30;67829;51.968;5.684;2024-01-25T11:02:06;14.6;13.8;12.1;9.5;;;;1.0;247.0;
78535;SPS30;67829;51.968;5.684;2024-01-25T11:04:36;13.5;12.9;11.6;9.6;;;;1.0;247.0;
78535;SPS30;67829;51.968;5.684;2024-01-25T11:07:08;13.9;13.2;11.8;9.7;;;;1.0;250.0;
78535;SPS30;67829;51.968;5.684;2024-01-25T11:09:37;13.6;12.9;11.3;9.0;;;;1.0;251.0;
78535;SPS30;67829;51.968;5.684;2024-01-25T11:12:12;12.2;11.6;10.3;8.3;;;;1.0;250.0;
78535;SPS30;67829;51.968;5.684;2024-01-25T11:14:41;13.1;12.6;11.5;9.7;;;;1.0;240.0;
78535;SPS30;67829;51.968;5.684;2024-01-25T11:17:20;11.0;10.6;9.7;8.1;;;;1.0;235.0;
78535;SPS30;67829;51.968;5.684;2024-01-25T11:19:50;11.6;11.1;10.1;8.5;;;;1.0;236.0;
78535;SPS30;67829;51.968;5.684;2024-01-25T11:22:20;11.4;10.9;10.0;8.5;;;;1.0;237.0;
78535;SPS30;67829;51.968;5.684;2024-01-25T11:24:51;11.6;11.2;10.4;9.0;;;;1.0;236.0;
78535;SPS30;67829;51.968;5.684;2024-01-25T11:27:20;12.1;11.8;11.0;9.6;;;;1.0;235.0;
78535;SPS30;67829;51.968;5.684;2024-01-25T11:29:50;13.1;12.6;11.6;9.9;;;;1.0;235.0;
78535;SPS30;67829;51.968;5.684;2024-01-25T11:32:19;14.4;13.8;12.5;10.5;;;;1.0;235.0;
78535;SPS30;67829;51.968;5.684;2024-01-25T11:34:48;13.1;12.6;11.5;9.8;;;;1.0;235.0;
78535;SPS30;67829;51.968;5.684;2024-01-25T11:37:27;14.7;14.1;12.8;10.8;;;;1.0;234.0;
78535;SPS30;67829;51.968;5.684;2024-01-25T11:39:56;12.5;12.1;11.3;9.9;;;;1.0;233.0;
78535;SPS30;67829;51.968;5.684;2024-01-25T11:42:24;13.5;13.1;12.1;10.4;;;;1.0;234.0;
78535;SPS30;67829;51.968;5.684;2024-01-25T11:44:56;12.5;12.1;11.4;10.0;;;;1.0;235.0;
78535;SPS30;67829;51.968;5.684;2024-01-25T11:47:25;13.1;12.7;11.8;10.3;;;;1.0;236.0;
78535;SPS30;67829;51.968;5.684;2024-01-25T11:49:54;13.7;13.3;12.3;10.6;;;;1.0;236.0;
78535;SPS30;67829;51.968;5.684;2024-01-25T11:52:22;13.6;13.3;12.4;10.9;;;;1.0;234.0;
78535;SPS30;67829;51.968;5.684;2024-01-25T11:54:52;13.4;13.0;12.2;10.6;;;;1.0;232.0;
78535;SPS30;67829;51.968;5.684;2024-01-25T11:57:21;13.1;12.7;11.8;10.2;;;;1.0;228.0;